Time;durP1;ratioP1;P1;durP2;ratioP2;P2;SDS_P1;SDS_P2;PMS_P1;PMS_P2;Temp;Humidity;BMP_temperature;BMP_pressure;BME280_temperature;BME280_humidity;BME280_pressure;Samples;Min_cycle;Max_cycle;Signal;HPM_P1;HPM_P2
2024/01/15 00:01:14;;;;;;;7.75;4.07;;;2.80;99.90;;;;;;5044823;28;20212;-43
2024/01/15 00:03:42;;;;;;;8.63;4.95;;;2.80;99.90;;;;;;5040113;28;20274;-43
2024/01/15 00:06:14;;;;;;;11.13;5.68;;;2.80;99.90;;;;;;5049316;28;20213;-43
2024/01/15 00:08:43;;;;;;;11.52;5.53;;;2.80;99.90;;;;;;5042180;28;20201;-43
2024/01/15 00:11:11;;;;;;;10.20;6.15;;;2.80;99.90;;;;;;5046834;28;20622;-43
2024/01/15 00:13:39;;;;;;;6.68;5.07;;;2.80;99.90;;;;;;5044304;28;20199;-43
2024/01/15 00:16:08;;;;;;;10.95;5.07;;;2.80;99.90;;;;;;5040997;28;20229;-44
2024/01/15 00:18:37;;;;;;;6.13;4.20;;;2.80;99.90;;;;;;5045240;28;20201;-43
2024/01/15 00:21:05;;;;;;;14.70;6.05;;;2.80;99.90;;;;;;5041959;28;20307;-43
2024/01/15 00:23:33;;;;;;;9.02;3.95;;;2.80;99.90;;;;;;5050630;28;20196;-43
2024/01/15 00:26:02;;;;;;;7.10;4.68;;;2.80;99.90;;;;;;5045479;28;20221;-43
2024/01/15 00:28:30;;;;;;;10.50;4.65;;;2.80;99.90;;;;;;5050490;28;20219;-43
2024/01/15 00:30:58;;;;;;;9.48;5.30;;;2.80;99.90;;;;;;5049161;28;20224;-43
2024/01/15 00:33:27;;;;;;;7.90;4.90;;;2.80;99.90;;;;;;5040924;28;20189;-43
2024/01/15 00:35:56;;;;;;;8.32;5.00;;;2.80;99.90;;;;;;5041262;28;20217;-43
2024/01/15 00:38:24;;;;;;;6.32;4.40;;;2.80;99.90;;;;;;5036117;28;20197;-43
2024/01/15 00:40:52;;;;;;;8.73;4.75;;;2.80;99.90;;;;;;5042151;28;20259;-43
2024/01/15 00:43:21;;;;;;;9.88;5.30;;;2.80;99.90;;;;;;5046675;28;20201;-44
2024/01/15 00:45:49;;;;;;;6.90;4.57;;;2.80;99.90;;;;;;5044567;28;20246;-45
2024/01/15 00:48:18;;;;;;;6.43;3.80;;;2.80;99.90;;;;;;5044398;28;20235;-43
2024/01/15 00:50:48;;;;;;;12.80;5.32;;;2.80;99.90;;;;;;5044167;28;20231;-43
2024/01/15 00:53:16;;;;;;;7.90;6.00;;;2.80;99.90;;;;;;5041995;28;20197;-43
2024/01/15 00:55:44;;;;;;;5.78;4.03;;;2.80;99.90;;;;;;5042210;28;20761;-43
2024/01/15 00:58:12;;;;;;;12.13;5.95;;;2.80;99.90;;;;;;5038571;28;20196;-43
2024/01/15 01:00:40;;;;;;;8.27;5.05;;;2.80;99.90;;;;;;5041219;28;20228;-43
2024/01/15 01:03:09;;;;;;;8.20;4.80;;;2.80;99.90;;;;;;5041403;28;20200;-43
2024/01/15 01:05:38;;;;;;;9.38;4.95;;;2.80;99.90;;;;;;5044834;28;20568;-42
2024/01/15 01:08:08;;;;;;;6.93;5.07;;;2.80;99.90;;;;;;5041640;28;20193;-42
2024/01/15 01:10:36;;;;;;;8.80;5.30;;;2.80;99.90;;;;;;5040461;28;20597;-43
2024/01/15 01:13:05;;;;;;;8.15;5.75;;;2.80;99.90;;;;;;5044460;28;20243;-42
2024/01/15 01:15:33;;;;;;;9.10;5.20;;;2.80;99.90;;;;;;5038856;28;20225;-42
2024/01/15 01:18:01;;;;;;;7.13;4.60;;;2.80;99.90;;;;;;5041959;28;20259;-43
2024/01/15 01:20:29;;;;;;;7.00;4.38;;;2.80;99.90;;;;;;5044040;28;20224;-44
2024/01/15 01:22:58;;;;;;;8.80;4.88;;;2.80;99.90;;;;;;5048803;28;20270;-43
2024/01/15 01:25:28;;;;;;;9.82;5.93;;;2.80;99.90;;;;;;5043412;28;20216;-43
2024/01/15 01:27:56;;;;;;;8.88;4.90;;;2.80;99.90;;;;;;5037694;28;20212;-44
2024/01/15 01:30:24;;;;;;;10.35;5.40;;;2.80;99.90;;;;;;5044663;28;20209;-43
2024/01/15 01:32:52;;;;;;;7.40;4.18;;;2.80;99.90;;;;;;5043357;28;20201;-44
2024/01/15 01:35:20;;;;;;;9.10;4.85;;;2.80;99.90;;;;;;5045240;28;20578;-43
2024/01/15 01:37:49;;;;;;;9.57;5.13;;;2.90;99.90;;;;;;5038101;28;20714;-42
2024/01/15 01:40:17;;;;;;;8.65;4.97;;;2.80;99.90;;;;;;5037378;28;20220;-43
2024/01/15 01:42:47;;;;;;;8.90;5.50;;;2.90;99.90;;;;;;5043351;28;20188;-43
2024/01/15 01:45:16;;;;;;;9.38;5.13;;;2.90;99.90;;;;;;5041649;28;20239;-43
2024/01/15 01:47:44;;;;;;;11.30;5.40;;;2.80;99.90;;;;;;5045606;28;20199;-43
2024/01/15 01:50:13;;;;;;;10.73;5.65;;;2.90;99.90;;;;;;5035407;28;20236;-43
2024/01/15 01:52:42;;;;;;;11.18;6.38;;;2.90;99.90;;;;;;5035010;28;20194;-43
2024/01/15 01:55:12;;;;;;;6.93;4.05;;;2.90;99.90;;;;;;5033589;28;20228;-43
2024/01/15 01:57:41;;;;;;;9.02;4.68;;;2.90;99.90;;;;;;5042307;28;20634;-43
2024/01/15 02:00:12;;;;;;;7.57;5.38;;;2.80;99.90;;;;;;5038303;28;20212;-43
2024/01/15 02:02:40;;;;;;;12.40;7.07;;;2.90;99.90;;;;;;5035585;28;20317;-45
2024/01/15 02:05:09;;;;;;;12.10;4.28;;;2.90;99.90;;;;;;5043998;28;20282;-42
2024/01/15 02:07:37;;;;;;;9.45;6.07;;;2.90;99.90;;;;;;5041718;28;20559;-43
2024/01/15 02:10:06;;;;;;;12.60;6.78;;;2.80;99.90;;;;;;5043970;28;20228;-43
2024/01/15 02:12:35;;;;;;;8.35;5.38;;;2.90;99.90;;;;;;5037480;28;20218;-45
2024/01/15 02:15:03;;;;;;;9.77;5.70;;;2.90;99.90;;;;;;5039743;28;20251;-44
2024/01/15 02:17:33;;;;;;;6.53;4.53;;;2.90;99.90;;;;;;5040347;28;20226;-44
2024/01/15 02:20:01;;;;;;;9.25;4.40;;;2.80;99.90;;;;;;5046908;28;20192;-43
2024/01/15 02:22:29;;;;;;;7.75;5.28;;;2.90;99.90;;;;;;5035322;28;20563;-45
2024/01/15 02:24:59;;;;;;;10.32;6.38;;;2.90;99.90;;;;;;5018732;28;20243;-44
2024/01/15 02:27:27;;;;;;;8.90;4.82;;;2.80;99.90;;;;;;5049258;28;20195;-43
2024/01/15 02:29:56;;;;;;;6.10;3.95;;;2.90;99.90;;;;;;5043556;28;20295;-43
2024/01/15 02:32:24;;;;;;;8.27;5.90;;;2.80;99.90;;;;;;5040825;28;20224;-43
2024/01/15 02:34:52;;;;;;;8.88;4.72;;;2.80;99.90;;;;;;5039664;28;20268;-44
2024/01/15 02:37:21;;;;;;;11.13;5.60;;;2.80;99.90;;;;;;5042262;28;20232;-43
2024/01/15 02:39:49;;;;;;;9.95;5.05;;;2.80;99.90;;;;;;5039393;28;20189;-43
2024/01/15 02:42:18;;;;;;;6.57;4.28;;;2.80;99.90;;;;;;5039649;28;20224;-44
2024/01/15 02:44:46;;;;;;;10.32;6.82;;;2.80;99.90;;;;;;5046534;28;20326;-43
2024/01/15 02:47:14;;;;;;;8.50;4.95;;;2.80;99.90;;;;;;5034867;28;20184;-44
2024/01/15 02:49:42;;;;;;;8.30;4.93;;;2.80;99.90;;;;;;5032237;28;20272;-44
2024/01/15 02:52:10;;;;;;;11.25;6.20;;;2.80;99.90;;;;;;5033718;28;20255;-45
2024/01/15 02:54:38;;;;;;;7.65;4.70;;;2.80;99.90;;;;;;5036393;28;20203;-43
2024/01/15 02:57:06;;;;;;;8.73;5.68;;;2.80;99.90;;;;;;5039500;28;20227;-44
2024/01/15 02:59:36;;;;;;;9.65;6.35;;;2.80;99.90;;;;;;5047739;28;20197;-43
2024/01/15 03:02:04;;;;;;;8.20;4.90;;;2.80;99.90;;;;;;5033490;28;20216;-43
2024/01/15 03:04:33;;;;;;;8.55;4.82;;;2.80;99.90;;;;;;5044358;28;20685;-44
2024/01/15 03:07:01;;;;;;;11.20;6.80;;;2.90;99.90;;;;;;5048337;28;20295;-44
2024/01/15 03:09:29;;;;;;;8.70;4.80;;;2.80;99.90;;;;;;5035676;28;20223;-45
2024/01/15 03:11:57;;;;;;;9.15;5.10;;;2.80;99.90;;;;;;5047598;28;20247;-44
2024/01/15 03:14:26;;;;;;;7.32;4.50;;;2.90;99.90;;;;;;5045527;28;20688;-44
2024/01/15 03:16:55;;;;;;;8.05;5.50;;;2.80;99.90;;;;;;5048214;28;20224;-45
2024/01/15 03:19:23;;;;;;;9.88;4.60;;;2.80;99.90;;;;;;5045758;28;20185;-43
2024/01/15 03:21:51;;;;;;;7.80;4.97;;;2.80;99.90;;;;;;5042756;28;20225;-45
2024/01/15 03:24:20;;;;;;;6.68;4.90;;;2.80;99.90;;;;;;5044235;28;20382;-44
2024/01/15 03:26:48;;;;;;;9.32;5.32;;;2.80;99.90;;;;;;5042359;28;20250;-43
2024/01/15 03:29:16;;;;;;;8.05;4.63;;;2.80;99.90;;;;;;5051174;28;21184;-43
2024/01/15 03:31:44;;;;;;;13.02;7.15;;;2.80;99.90;;;;;;5045103;28;20221;-44
2024/01/15 03:34:14;;;;;;;9.60;5.55;;;2.80;99.90;;;;;;5042966;28;20197;-44
2024/01/15 03:36:42;;;;;;;11.68;6.03;;;2.80;99.90;;;;;;5035533;28;20263;-44
2024/01/15 03:39:10;;;;;;;9.15;5.20;;;2.80;99.90;;;;;;5039971;28;20626;-44
2024/01/15 03:41:39;;;;;;;7.95;5.38;;;2.80;99.90;;;;;;5044151;28;20225;-43
2024/01/15 03:44:07;;;;;;;8.45;5.22;;;2.80;99.90;;;;;;5039332;28;20196;-43
2024/01/15 03:46:35;;;;;;;7.03;5.20;;;2.80;99.90;;;;;;5026417;28;20216;-43
2024/01/15 03:49:04;;;;;;;7.00;4.93;;;2.80;99.90;;;;;;5045437;28;20819;-43
2024/01/15 03:51:34;;;;;;;8.65;4.82;;;2.80;99.90;;;;;;5042649;28;20613;-43
2024/01/15 03:54:02;;;;;;;8.70;5.30;;;2.80;99.90;;;;;;5046034;28;20200;-44
2024/01/15 03:56:32;;;;;;;7.35;4.80;;;2.80;99.90;;;;;;5038859;28;20781;-43
2024/01/15 03:59:00;;;;;;;6.55;4.88;;;2.80;99.90;;;;;;5046420;28;20220;-42
2024/01/15 04:01:29;;;;;;;8.32;5.45;;;2.80;99.90;;;;;;5050232;28;20216;-43
2024/01/15 04:03:57;;;;;;;8.90;4.95;;;2.80;99.90;;;;;;5049386;28;20205;-43
2024/01/15 04:06:26;;;;;;;7.60;4.97;;;2.80;99.90;;;;;;5042817;28;20698;-43
2024/01/15 04:08:55;;;;;;;8.18;5.03;;;2.80;99.90;;;;;;5026870;28;20190;-44
2024/01/15 04:11:24;;;;;;;8.20;4.65;;;2.80;99.90;;;;;;5042384;28;20252;-42
2024/01/15 04:13:52;;;;;;;7.70;4.82;;;2.80;99.90;;;;;;5043900;28;20192;-43
2024/01/15 04:16:20;;;;;;;9.32;4.85;;;2.80;99.90;;;;;;5046236;28;20605;-43
2024/01/15 04:18:48;;;;;;;6.95;4.45;;;2.80;99.90;;;;;;5046529;28;20212;-45
2024/01/15 04:21:18;;;;;;;8.90;5.20;;;2.80;99.90;;;;;;5037504;28;20233;-43
2024/01/15 04:23:46;;;;;;;7.05;4.68;;;2.80;99.90;;;;;;5037820;28;20193;-43
2024/01/15 04:26:15;;;;;;;7.20;4.28;;;2.80;99.90;;;;;;5044172;28;20227;-43
2024/01/15 04:28:43;;;;;;;5.28;3.90;;;2.80;99.90;;;;;;5042868;28;20197;-43
2024/01/15 04:31:22;;;;;;;7.45;4.78;;;2.90;99.90;;;;;;5047823;28;20216;-43
2024/01/15 04:33:50;;;;;;;10.10;5.45;;;2.80;99.90;;;;;;5041377;28;20197;-43
2024/01/15 04:36:18;;;;;;;8.80;4.78;;;2.80;99.90;;;;;;5044257;28;20254;-43
2024/01/15 04:38:46;;;;;;;7.05;4.90;;;2.80;99.90;;;;;;5045526;28;20763;-43
2024/01/15 04:41:17;;;;;;;8.32;4.85;;;2.80;99.90;;;;;;5038486;28;20828;-43
2024/01/15 04:43:45;;;;;;;9.75;5.60;;;2.80;99.90;;;;;;5040294;28;20197;-43
2024/01/15 04:46:13;;;;;;;7.70;3.95;;;2.80;99.90;;;;;;5047382;28;20252;-44
2024/01/15 04:48:41;;;;;;;8.90;4.57;;;2.80;99.90;;;;;;5043080;28;20189;-44
2024/01/15 04:51:10;;;;;;;8.32;4.70;;;2.80;99.90;;;;;;5046828;28;20258;-44
2024/01/15 04:53:38;;;;;;;7.65;4.43;;;2.80;99.90;;;;;;5042861;28;20192;-43
2024/01/15 04:56:06;;;;;;;7.28;4.70;;;2.80;99.90;;;;;;5042867;28;20266;-43
2024/01/15 04:58:36;;;;;;;6.97;4.82;;;2.80;99.90;;;;;;5044650;28;20221;-44
2024/01/15 05:01:04;;;;;;;7.88;4.70;;;2.80;99.90;;;;;;5033518;28;20652;-44
2024/01/15 05:03:32;;;;;;;6.35;4.20;;;2.80;99.90;;;;;;5041486;28;20205;-43
2024/01/15 05:06:01;;;;;;;6.25;4.15;;;2.80;99.90;;;;;;5039963;28;20232;-43
2024/01/15 05:08:29;;;;;;;7.70;4.20;;;2.80;99.90;;;;;;5047981;28;20616;-45
2024/01/15 05:10:57;;;;;;;6.10;4.30;;;2.80;99.90;;;;;;5046461;28;20231;-43
2024/01/15 05:13:25;;;;;;;5.75;4.07;;;2.90;99.90;;;;;;5043444;28;20211;-43
2024/01/15 05:15:55;;;;;;;7.07;4.68;;;2.80;99.90;;;;;;5045641;28;20213;-43
2024/01/15 05:18:23;;;;;;;8.25;4.43;;;2.80;99.90;;;;;;5046253;28;20219;-45
2024/01/15 05:20:52;;;;;;;8.05;4.78;;;2.80;99.90;;;;;;5041202;28;20303;-43
2024/01/15 05:23:20;;;;;;;7.68;4.82;;;2.80;99.90;;;;;;5047062;28;20193;-43
2024/01/15 05:25:48;;;;;;;6.57;4.45;;;2.80;99.90;;;;;;5040721;28;20221;-43
2024/01/15 05:28:17;;;;;;;8.98;4.95;;;2.80;99.90;;;;;;5047944;28;20196;-43
2024/01/15 05:30:45;;;;;;;10.27;5.03;;;2.80;99.90;;;;;;5041920;28;20218;-44
2024/01/15 05:33:15;;;;;;;6.40;4.25;;;2.80;99.90;;;;;;5028629;28;20684;-44
2024/01/15 05:35:43;;;;;;;6.18;4.78;;;2.80;99.90;;;;;;5035505;28;20713;-43
2024/01/15 05:38:11;;;;;;;10.32;6.28;;;2.80;99.90;;;;;;5037865;28;20254;-43
2024/01/15 05:40:39;;;;;;;8.25;4.80;;;2.80;99.90;;;;;;5043045;28;20590;-44
2024/01/15 05:43:07;;;;;;;7.22;4.80;;;2.80;99.90;;;;;;5042302;28;20225;-44
2024/01/15 05:45:36;;;;;;;6.82;4.13;;;2.80;99.90;;;;;;5040669;28;20217;-44
2024/01/15 05:48:04;;;;;;;7.38;4.50;;;2.80;99.90;;;;;;5041839;28;20197;-45
2024/01/15 05:50:34;;;;;;;7.10;5.35;;;2.80;99.90;;;;;;5046823;28;20283;-43
2024/01/15 05:53:03;;;;;;;4.68;3.40;;;2.80;99.90;;;;;;5039391;28;20656;-44
2024/01/15 05:55:31;;;;;;;6.40;4.25;;;2.80;99.90;;;;;;5038657;28;20224;-44
2024/01/15 05:57:59;;;;;;;6.88;4.10;;;2.80;99.90;;;;;;5040026;28;20656;-43
2024/01/15 06:00:28;;;;;;;7.65;5.30;;;2.80;99.90;;;;;;5044642;28;20267;-44
2024/01/15 06:02:56;;;;;;;8.18;4.95;;;2.90;99.90;;;;;;5037987;28;20220;-44
2024/01/15 06:05:24;;;;;;;5.72;3.90;;;2.90;99.90;;;;;;5040498;28;20717;-45
2024/01/15 06:07:54;;;;;;;5.55;3.90;;;2.90;99.90;;;;;;5044495;28;20292;-45
2024/01/15 06:10:22;;;;;;;7.10;4.05;;;2.90;99.90;;;;;;5037103;28;20444;-46
2024/01/15 06:12:50;;;;;;;8.20;4.32;;;2.80;99.90;;;;;;5042781;28;20560;-45
2024/01/15 06:15:18;;;;;;;8.85;5.22;;;2.80;99.90;;;;;;5045129;28;20224;-45
2024/01/15 06:17:47;;;;;;;5.93;4.10;;;2.80;99.90;;;;;;5042958;28;20188;-47
2024/01/15 06:20:15;;;;;;;5.68;3.13;;;2.90;99.90;;;;;;5037639;28;20722;-48
2024/01/15 06:22:43;;;;;;;4.70;3.65;;;2.90;99.90;;;;;;5031664;28;20280;-50
2024/01/15 06:25:12;;;;;;;4.97;3.65;;;2.90;99.90;;;;;;5038466;28;20216;-45
2024/01/15 06:27:41;;;;;;;6.00;3.28;;;2.90;99.90;;;;;;5045697;28;20223;-45
2024/01/15 06:30:10;;;;;;;4.40;3.30;;;2.90;99.90;;;;;;5041152;28;20367;-48
2024/01/15 06:32:38;;;;;;;5.93;3.78;;;2.80;99.90;;;;;;5040961;28;20216;-46
2024/01/15 06:35:08;;;;;;;7.10;4.65;;;2.90;99.90;;;;;;5034655;28;20196;-48
2024/01/15 06:37:36;;;;;;;8.23;5.50;;;2.90;99.90;;;;;;5039275;28;20205;-46
2024/01/15 06:40:06;;;;;;;6.90;4.20;;;2.90;99.90;;;;;;5043248;28;20267;-46
2024/01/15 06:42:35;;;;;;;6.38;4.53;;;2.90;99.90;;;;;;5039829;28;20271;-48
2024/01/15 06:45:05;;;;;;;5.43;3.90;;;2.90;99.90;;;;;;5040139;28;20297;-45
2024/01/15 06:47:33;;;;;;;5.57;4.55;;;2.90;99.90;;;;;;5044195;28;20208;-46
2024/01/15 06:50:01;;;;;;;7.07;4.22;;;2.90;99.90;;;;;;5035648;28;20199;-44
2024/01/15 06:52:29;;;;;;;6.45;3.70;;;2.90;99.90;;;;;;5036683;28;20221;-48
2024/01/15 06:54:57;;;;;;;6.00;3.85;;;2.80;99.90;;;;;;5041024;28;20254;-47
2024/01/15 06:57:25;;;;;;;5.93;4.05;;;2.80;99.90;;;;;;5037370;28;20200;-47
2024/01/15 06:59:55;;;;;;;8.10;4.35;;;2.90;99.90;;;;;;5047215;28;20215;-46
2024/01/15 07:02:23;;;;;;;7.25;3.88;;;2.80;99.90;;;;;;5046250;28;20677;-44
2024/01/15 07:04:51;;;;;;;7.72;4.15;;;2.90;99.90;;;;;;5040205;28;20193;-47
2024/01/15 07:07:19;;;;;;;8.35;4.75;;;2.80;99.90;;;;;;5034600;28;20609;-47
2024/01/15 07:09:47;;;;;;;6.10;4.53;;;2.80;99.90;;;;;;5039911;28;20189;-47
2024/01/15 07:12:16;;;;;;;6.50;3.75;;;2.90;99.90;;;;;;5033744;28;20717;-46
2024/01/15 07:14:44;;;;;;;5.47;3.55;;;2.90;99.90;;;;;;5043329;28;20598;-45
2024/01/15 07:17:14;;;;;;;9.77;4.97;;;2.80;99.90;;;;;;5041130;28;20217;-48
2024/01/15 07:19:42;;;;;;;9.13;4.22;;;2.80;99.90;;;;;;5043665;28;20416;-47
2024/01/15 07:22:10;;;;;;;6.47;4.80;;;2.80;99.90;;;;;;5034577;28;20220;-48
2024/01/15 07:24:38;;;;;;;6.88;4.60;;;2.80;99.90;;;;;;5041297;28;20275;-46
2024/01/15 07:27:06;;;;;;;5.13;4.20;;;2.80;99.90;;;;;;5038978;28;20224;-46
2024/01/15 07:29:37;;;;;;;9.38;5.15;;;2.80;99.90;;;;;;5034545;28;20197;-46
2024/01/15 07:32:07;;;;;;;8.38;4.97;;;2.80;99.90;;;;;;5044665;28;20239;-45
2024/01/15 07:34:40;;;;;;;6.70;3.70;;;2.80;99.90;;;;;;5027124;28;20193;-44
2024/01/15 07:37:08;;;;;;;6.45;4.07;;;2.80;99.90;;;;;;5039356;28;20307;-44
2024/01/15 07:39:36;;;;;;;4.95;3.65;;;2.80;99.90;;;;;;5026319;28;20213;-44
2024/01/15 07:42:05;;;;;;;8.77;4.47;;;2.80;99.90;;;;;;5043097;28;20302;-47
2024/01/15 07:44:33;;;;;;;6.28;4.53;;;2.90;99.90;;;;;;5041130;28;20200;-43
2024/01/15 07:47:01;;;;;;;8.82;5.38;;;2.80;99.90;;;;;;5036622;28;20221;-44
2024/01/15 07:49:29;;;;;;;6.90;4.30;;;2.80;99.90;;;;;;5040332;28;20202;-44
2024/01/15 07:51:59;;;;;;;7.10;4.00;;;2.80;99.90;;;;;;5041420;28;20231;-44
2024/01/15 07:54:27;;;;;;;5.70;4.95;;;2.80;99.90;;;;;;5042965;28;20288;-44
2024/01/15 07:56:58;;;;;;;6.85;4.15;;;2.80;99.90;;;;;;5047887;28;20598;-44
2024/01/15 07:59:26;;;;;;;4.78;3.70;;;2.90;99.90;;;;;;5042318;28;20265;-46
2024/01/15 08:01:54;;;;;;;6.15;4.22;;;2.80;99.90;;;;;;5040512;28;20603;-46
2024/01/15 08:04:23;;;;;;;8.18;4.40;;;2.80;99.90;;;;;;5032776;28;20255;-45
2024/01/15 08:06:51;;;;;;;18.65;9.35;;;2.90;99.90;;;;;;5043318;28;20223;-45
2024/01/15 08:09:21;;;;;;;17.35;10.77;;;2.80;99.90;;;;;;5044938;28;20609;-44
2024/01/15 08:11:50;;;;;;;18.25;11.15;;;2.80;99.90;;;;;;5045204;28;20221;-44
2024/01/15 08:14:21;;;;;;;20.30;12.77;;;2.80;99.90;;;;;;5044209;28;20685;-46
2024/01/15 08:16:50;;;;;;;26.42;12.45;;;2.70;99.90;;;;;;5041487;28;20217;-46
2024/01/15 08:19:19;;;;;;;24.25;11.43;;;2.70;99.90;;;;;;5050349;28;20192;-46
2024/01/15 08:21:49;;;;;;;19.50;11.48;;;2.70;99.90;;;;;;5044586;28;20213;-44
2024/01/15 08:24:18;;;;;;;21.20;10.30;;;2.70;99.90;;;;;;5037364;28;20210;-44
2024/01/15 08:26:47;;;;;;;15.05;10.45;;;2.70;99.90;;;;;;5040698;28;20217;-46
2024/01/15 08:29:16;;;;;;;13.68;8.60;;;2.70;99.90;;;;;;5041040;28;20205;-45
2024/01/15 08:31:44;;;;;;;11.48;8.15;;;2.80;99.90;;;;;;5026715;28;20263;-45
2024/01/15 08:34:13;;;;;;;17.08;9.15;;;2.80;99.90;;;;;;5047808;28;20553;-44
2024/01/15 08:36:45;;;;;;;12.43;7.85;;;2.80;99.90;;;;;;5042355;28;20220;-44
2024/01/15 08:39:13;;;;;;;18.10;9.32;;;2.80;99.90;;;;;;5043960;28;20197;-45
2024/01/15 08:41:43;;;;;;;12.65;9.40;;;2.80;99.90;;;;;;5043926;28;20278;-44
2024/01/15 08:44:13;;;;;;;12.23;8.50;;;2.80;99.90;;;;;;5042997;28;20189;-45
2024/01/15 08:46:41;;;;;;;12.23;7.85;;;2.80;99.90;;;;;;5049302;28;20217;-43
2024/01/15 08:49:09;;;;;;;14.80;7.65;;;2.80;99.90;;;;;;5037799;28;20270;-44
2024/01/15 08:51:39;;;;;;;13.07;8.00;;;2.80;99.90;;;;;;5042664;28;20229;-43
2024/01/15 08:54:08;;;;;;;10.82;7.72;;;2.80;99.90;;;;;;5038783;28;20194;-43
2024/01/15 08:56:37;;;;;;;13.52;7.65;;;2.90;99.90;;;;;;5043090;28;20220;-45
2024/01/15 08:59:08;;;;;;;14.02;7.72;;;2.80;99.90;;;;;;5044249;28;20674;-45
2024/01/15 09:01:39;;;;;;;10.40;6.30;;;2.90;99.90;;;;;;5045969;28;20312;-45
2024/01/15 09:04:08;;;;;;;10.38;6.55;;;2.90;99.90;;;;;;5041292;28;20570;-48
2024/01/15 09:06:37;;;;;;;10.95;7.18;;;2.90;99.90;;;;;;5037244;28;20576;-47
2024/01/15 09:09:06;;;;;;;7.57;5.70;;;2.90;99.90;;;;;;5042020;28;20203;-46
2024/01/15 09:11:34;;;;;;;9.95;6.68;;;2.90;99.90;;;;;;5041961;28;20225;-44
2024/01/15 09:14:03;;;;;;;10.35;7.30;;;2.90;99.90;;;;;;5038560;28;20200;-46
2024/01/15 09:16:31;;;;;;;12.25;7.43;;;2.90;99.90;;;;;;5043497;28;20221;-43
2024/01/15 09:19:03;;;;;;;13.90;7.20;;;2.90;99.90;;;;;;5046513;28;20717;-46
2024/01/15 09:21:31;;;;;;;9.65;6.38;;;2.90;99.90;;;;;;5042265;28;20224;-45
2024/01/15 09:24:00;;;;;;;10.40;8.00;;;2.90;99.90;;;;;;5043721;28;20688;-47
2024/01/15 09:26:28;;;;;;;11.05;7.32;;;2.90;99.90;;;;;;5044163;28;20221;-46
2024/01/15 09:28:59;;;;;;;8.93;6.03;;;2.80;99.90;;;;;;5038102;28;20193;-46
2024/01/15 09:31:27;;;;;;;9.57;6.63;;;2.90;99.90;;;;;;5039141;28;20231;-47
2024/01/15 09:33:58;;;;;;;8.63;5.88;;;2.90;99.90;;;;;;5044407;28;20204;-47
2024/01/15 09:36:28;;;;;;;10.45;6.20;;;2.90;99.90;;;;;;5037519;28;20228;-48
2024/01/15 09:38:56;;;;;;;8.10;6.05;;;2.90;99.90;;;;;;5041992;28;20193;-47
2024/01/15 09:41:25;;;;;;;9.05;5.90;;;2.90;99.90;;;;;;5039698;28;20232;-48
2024/01/15 09:43:53;;;;;;;9.23;6.03;;;2.90;99.90;;;;;;5041285;28;20193;-43
2024/01/15 09:46:22;;;;;;;9.38;5.60;;;2.90;99.90;;;;;;5024976;28;20231;-43
2024/01/15 09:48:51;;;;;;;9.13;6.40;;;2.90;99.90;;;;;;5041579;28;20751;-48
2024/01/15 09:51:19;;;;;;;8.43;5.60;;;2.90;99.90;;;;;;5045907;28;20621;-46
2024/01/15 09:53:52;;;;;;;9.18;6.10;;;2.80;99.90;;;;;;5039614;28;20205;-45
2024/01/15 09:56:23;;;;;;;8.00;6.25;;;2.90;99.90;;;;;;5038977;28;20212;-46
2024/01/15 09:58:57;;;;;;;9.45;5.65;;;2.90;99.90;;;;;;5039018;28;20610;-45
2024/01/15 10:01:26;;;;;;;8.75;5.07;;;2.90;99.90;;;;;;5043281;28;20228;-45
2024/01/15 10:03:55;;;;;;;7.40;5.40;;;2.90;99.90;;;;;;5041044;28;20194;-44
2024/01/15 10:06:24;;;;;;;11.25;5.75;;;2.90;99.90;;;;;;5040044;28;20213;-44
2024/01/15 10:08:58;;;;;;;9.02;4.60;;;2.90;99.90;;;;;;5043075;28;20675;-46
2024/01/15 10:11:26;;;;;;;7.18;5.13;;;2.90;99.90;;;;;;5038057;28;20220;-45
2024/01/15 10:13:57;;;;;;;7.18;5.53;;;2.90;99.90;;;;;;5018409;28;20529;-45
2024/01/15 10:16:26;;;;;;;8.25;5.45;;;2.90;99.90;;;;;;5044165;28;20247;-47
2024/01/15 10:18:55;;;;;;;8.80;5.05;;;2.90;99.90;;;;;;5039945;28;20193;-43
2024/01/15 10:21:23;;;;;;;5.70;4.38;;;2.90;99.90;;;;;;5034076;28;20698;-45
2024/01/15 10:23:53;;;;;;;7.47;4.82;;;2.90;99.90;;;;;;5037634;28;20197;-43
2024/01/15 10:26:26;;;;;;;5.60;4.53;;;2.90;99.90;;;;;;5036576;28;20624;-43
2024/01/15 10:28:54;;;;;;;8.23;5.22;;;2.90;99.90;;;;;;5040156;28;20223;-41
2024/01/15 10:31:23;;;;;;;5.32;4.82;;;2.90;99.90;;;;;;5037804;28;20214;-46
2024/01/15 10:34:15;;;;;;;6.95;4.50;;;2.90;99.90;;;;;;5017034;28;20224;-44
2024/01/15 10:36:47;;;;;;;8.45;4.85;;;2.90;99.90;;;;;;5027165;28;20240;-45
2024/01/15 10:39:21;;;;;;;10.27;5.57;;;2.90;99.90;;;;;;5034722;28;20189;-46
2024/01/15 10:41:50;;;;;;;6.90;4.82;;;2.90;99.90;;;;;;5037229;28;20574;-47
2024/01/15 10:44:19;;;;;;;6.82;4.75;;;2.90;99.90;;;;;;5033727;28;20193;-46
2024/01/15 10:46:48;;;;;;;7.80;5.30;;;2.90;99.90;;;;;;5038755;28;20225;-49
2024/01/15 10:49:18;;;;;;;5.10;4.25;;;2.90;99.90;;;;;;5042368;28;20706;-43
2024/01/15 10:51:49;;;;;;;5.25;4.40;;;2.90;99.90;;;;;;5040714;28;20315;-45
2024/01/15 10:54:18;;;;;;;5.68;4.25;;;2.90;99.90;;;;;;5021511;28;20201;-46
2024/01/15 10:56:48;;;;;;;6.85;3.92;;;2.90;99.90;;;;;;5039310;28;20209;-44
2024/01/15 10:59:17;;;;;;;6.50;4.97;;;2.90;99.90;;;;;;5038325;28;20223;-44
2024/01/15 11:01:46;;;;;;;5.97;3.97;;;2.90;99.90;;;;;;5043827;28;20255;-45
2024/01/15 11:04:17;;;;;;;5.60;3.63;;;2.90;99.90;;;;;;5039353;28;20609;-45
2024/01/15 11:06:47;;;;;;;7.10;4.53;;;2.90;99.90;;;;;;5041006;28;20212;-45
2024/01/15 11:09:17;;;;;;;6.68;4.20;;;2.90;99.90;;;;;;5042426;28;20193;-46
2024/01/15 11:11:49;;;;;;;5.80;4.25;;;2.90;99.90;;;;;;5040318;28;20399;-46
2024/01/15 11:14:36;;;;;;;5.18;3.95;;;2.90;99.90;;;;;;5046899;28;20243;-46
2024/01/15 11:17:05;;;;;;;5.65;4.05;;;2.90;99.90;;;;;;5039370;28;20231;-46
2024/01/15 11:19:41;;;;;;;5.90;4.22;;;2.90;99.90;;;;;;5040320;28;20208;-47
2024/01/15 11:22:11;;;;;;;5.75;4.57;;;2.90;99.90;;;;;;5033209;28;20216;-46
2024/01/15 11:24:44;;;;;;;5.28;3.83;;;2.90;99.90;;;;;;5043787;28;20221;-48
2024/01/15 11:27:13;;;;;;;6.82;4.25;;;2.90;99.90;;;;;;5040366;28;20224;-48
2024/01/15 11:29:41;;;;;;;5.57;4.15;;;2.90;99.90;;;;;;5043077;28;20196;-44
2024/01/15 11:32:13;;;;;;;5.30;3.83;;;2.90;99.90;;;;;;5040575;28;20212;-44
2024/01/15 11:35:01;;;;;;;5.40;3.90;;;2.90;99.90;;;;;;5040190;28;20220;-44
2024/01/15 11:38:01;;;;;;;5.55;3.78;;;2.90;99.90;;;;;;5034574;28;20221;-44
2024/01/15 11:40:42;;;;;;;9.57;4.28;;;2.90;99.90;;;;;;5032931;28;20240;-45
2024/01/15 11:43:15;;;;;;;5.60;3.70;;;2.90;99.90;;;;;;5045824;28;20216;-44
2024/01/15 11:46:05;;;;;;;4.70;3.28;;;2.90;99.90;;;;;;5040694;28;20733;-45
2024/01/15 11:49:06;;;;;;;5.15;3.88;;;3.00;99.90;;;;;;5048234;28;20247;-44
2024/01/15 11:51:36;;;;;;;5.40;3.33;;;2.90;99.90;;;;;;5044099;28;20217;-45
2024/01/15 11:54:10;;;;;;;5.00;3.60;;;3.00;99.90;;;;;;5025584;28;20197;-43
2024/01/15 11:56:40;;;;;;;4.85;3.63;;;3.00;99.90;;;;;;5047147;28;20219;-45
2024/01/15 11:59:12;;;;;;;5.32;3.80;;;2.90;99.90;;;;;;5038976;28;20250;-45
2024/01/15 12:01:43;;;;;;;5.30;3.70;;;2.90;99.90;;;;;;5046995;28;20208;-45
2024/01/15 12:04:13;;;;;;;4.28;3.20;;;2.90;99.90;;;;;;5044443;28;20220;-45
2024/01/15 12:06:44;;;;;;;5.75;3.33;;;3.00;99.90;;;;;;5042746;28;20221;-45
2024/01/15 12:09:13;;;;;;;4.32;3.10;;;2.90;99.90;;;;;;5042068;28;20188;-45
2024/01/15 12:11:49;;;;;;;7.05;3.38;;;2.90;99.90;;;;;;5043055;28;20267;-45
2024/01/15 12:14:19;;;;;;;4.95;3.25;;;2.90;99.90;;;;;;5037470;28;20484;-45
2024/01/15 12:16:47;;;;;;;7.25;4.00;;;2.90;99.90;;;;;;5040062;28;20304;-44
2024/01/15 12:19:16;;;;;;;6.65;3.55;;;2.90;99.90;;;;;;5046145;28;20717;-45
2024/01/15 12:21:48;;;;;;;4.68;3.50;;;3.00;99.90;;;;;;5041683;28;20228;-44
2024/01/15 12:24:18;;;;;;;4.32;3.50;;;3.00;99.90;;;;;;5050916;28;20569;-44
2024/01/15 12:26:46;;;;;;;7.13;3.67;;;3.00;99.90;;;;;;5043324;28;20243;-43
2024/01/15 12:29:14;;;;;;;4.85;3.17;;;3.00;99.90;;;;;;5044751;28;20288;-44
2024/01/15 12:31:44;;;;;;;5.20;3.50;;;3.00;99.90;;;;;;5042944;28;20644;-43
2024/01/15 12:34:12;;;;;;;10.05;4.82;;;2.90;99.90;;;;;;5040625;28;20674;-45
2024/01/15 12:36:41;;;;;;;6.70;3.70;;;2.90;99.90;;;;;;5031716;28;20219;-44
2024/01/15 12:39:16;;;;;;;10.93;3.40;;;2.90;99.90;;;;;;5044722;28;20646;-44
2024/01/15 12:41:46;;;;;;;6.70;3.20;;;2.90;99.90;;;;;;5043641;28;20220;-44
2024/01/15 12:44:15;;;;;;;4.32;3.10;;;2.90;99.90;;;;;;5042624;28;20193;-46
2024/01/15 12:46:45;;;;;;;9.68;4.18;;;2.90;99.90;;;;;;5025614;28;20217;-45
2024/01/15 12:49:14;;;;;;;9.68;3.88;;;2.90;99.90;;;;;;5047561;28;20736;-45
2024/01/15 12:51:42;;;;;;;3.95;3.08;;;2.90;99.90;;;;;;5037620;28;20224;-46
2024/01/15 12:54:12;;;;;;;7.00;3.35;;;2.90;99.90;;;;;;5038103;28;20196;-45
2024/01/15 12:56:40;;;;;;;8.30;3.45;;;2.90;99.90;;;;;;5043360;28;20622;-45
2024/01/15 12:59:08;;;;;;;8.40;3.50;;;3.00;99.90;;;;;;5041617;28;20184;-48
2024/01/15 13:01:37;;;;;;;5.00;2.70;;;3.00;99.90;;;;;;5039169;28;20682;-45
2024/01/15 13:04:08;;;;;;;6.82;3.28;;;3.00;99.90;;;;;;5043329;28;20216;-44
2024/01/15 13:06:40;;;;;;;5.90;3.20;;;3.00;99.90;;;;;;5044470;28;20306;-45